Search for airport 
image banner adimage banner adimage banner ad
image banner ad

CCS4 - Chipman

Located in , Canada

ICAO - CCS4, IATA -

Data provided by Airmate  

General information

Coordinates: N46°8'55" W65°54'15"
Elevation is 65 feet MSL.
Magnetic variation is -17.8122° East
View others Airports in New Brunswick

Operational data

Special qualification required
Current time UTC:
Current local time:
Weather at : CYCX - Gagetown ( 54 km )
METAR: CYCX 191200Z CCA 23008KT 15SM FEW027 BKN040 06/04 A2958 RMK SC1SC6 DA-426FT SLP020
TAF: TAF CYCX 191015Z 1910/1922 21007KT P6SM SCT030 BKN110 TEMPO 1910/1915 BKN020 BECMG 1913/1915 27010G20KT FM191500 27010G20KT P6SM BKN030 TEMPO 1915/1922 5SM -SHRA BR BKN015 RMK NXT FCST BY 191500Z
View NOTAMs / SUP AIP / TFR affecting this airport [VIEW]
Communications frequencies: [VIEW]

Runways:

RWY identifierQFULength (ft)Width (ft)SurfaceLDA (ft)
0972°402250ASPH4022
27252°402250ASPH4022

Airport contact information

Address: Canada

Satellite view of CCS4